Aviation Digital Data Service (ADDS)

Output produced by METARs form (2339 UTC 13 February 2016)
found at http://aviationweather.gov/adds/metars/
 
KLAS 132320Z 1400/1424 05005KT P6SM FEW250 
     FM140400 21005KT P6SM FEW250 
     FM141700 VRB05KT P6SM SCT250 
     FM142000 01008KT P6SM SCT250